Time;durP1;ratioP1;P1;durP2;ratioP2;P2;SDS_P1;SDS_P2;PMS_P1;PMS_P2;Temp;Humidity;BMP_temperature;BMP_pressure;BME280_temperature;BME280_humidity;BME280_pressure;Samples;Min_cycle;Max_cycle;Signal;HPM_P1;HPM_P2
2021/04/27 00:01:26;;;;;;;18.55;9.13;;;;;;;2.14;71.16;99295.53;3483633;28;20048;-43
2021/04/27 00:03:08;;;;;;;20.10;10.25;;;;;;;2.12;71.21;99289.47;3480538;28;20071;-43
2021/04/27 00:04:50;;;;;;;23.20;10.55;;;;;;;2.12;71.35;99289.47;3483284;28;20057;-51
2021/04/27 00:06:31;;;;;;;25.73;11.15;;;;;;;2.07;71.65;99285.84;3479698;28;20056;-43
2021/04/27 00:08:13;;;;;;;21.58;11.07;;;;;;;2.08;71.84;99295.28;3482016;28;20118;-50
2021/04/27 00:09:55;;;;;;;31.25;11.13;;;;;;;2.05;72.01;99290.03;3482227;28;20048;-43
2021/04/27 00:11:37;;;;;;;22.98;10.65;;;;;;;2.04;71.92;99291.72;3479752;28;20056;-43
2021/04/27 00:13:18;;;;;;;23.35;10.50;;;;;;;2.03;72.16;99294.22;3471377;28;21967;-43
2021/04/27 00:15:00;;;;;;;23.98;10.98;;;;;;;2.01;72.29;99294.16;3474703;28;20564;-50
2021/04/27 00:16:41;;;;;;;24.15;11.50;;;;;;;1.99;72.48;99292.31;3470103;28;20057;-50
2021/04/27 00:18:22;;;;;;;22.10;11.18;;;;;;;1.97;72.36;99299.06;3480175;28;20421;-49
2021/04/27 00:20:05;;;;;;;27.95;12.25;;;;;;;1.97;72.52;99299.06;3480885;28;20060;-50
2021/04/27 00:21:47;;;;;;;29.05;10.98;;;;;;;1.93;72.18;99303.19;3481681;28;20537;-50
2021/04/27 00:23:29;;;;;;;23.17;11.75;;;;;;;1.92;72.72;99309.97;3479779;28;20087;-50
2021/04/27 00:25:11;;;;;;;30.30;13.02;;;;;;;1.90;73.32;99303.94;3483260;28;20052;-49
2021/04/27 00:26:53;;;;;;;27.65;12.00;;;;;;;1.90;73.33;99308.16;3479840;28;20053;-50
2021/04/27 00:28:35;;;;;;;27.80;13.32;;;;;;;1.89;73.11;99316.66;3483371;28;20053;-43
2021/04/27 00:30:19;;;;;;;27.73;12.98;;;;;;;1.88;73.13;99317.44;3480318;28;20053;-52
2021/04/27 00:32:01;;;;;;;27.92;12.35;;;;;;;1.86;73.08;99312.25;3481345;28;20077;-44
2021/04/27 00:33:42;;;;;;;29.63;14.65;;;;;;;1.86;73.13;99317.38;3482263;28;20083;-43
2021/04/27 00:35:25;;;;;;;32.22;14.60;;;;;;;1.86;73.50;99325.06;3478903;28;20098;-50
2021/04/27 00:37:06;;;;;;;32.78;14.73;;;;;;;1.85;73.34;99313.09;3483441;28;20088;-44
2021/04/27 00:38:48;;;;;;;22.88;10.93;;;;;;;1.85;72.93;99319.91;3478902;28;20398;-50
2021/04/27 00:40:31;;;;;;;23.33;10.50;;;;;;;1.84;72.62;99316.44;3482750;28;20056;-50
2021/04/27 00:42:14;;;;;;;25.38;11.10;;;;;;;1.84;72.63;99316.44;3480750;28;20049;-50
2021/04/27 00:43:55;;;;;;;30.02;12.40;;;;;;;1.84;73.27;99313.03;3480487;28;20045;-51
2021/04/27 00:45:37;;;;;;;32.38;12.98;;;;;;;1.85;73.21;99309.69;3470121;28;20068;-50
2021/04/27 00:47:18;;;;;;;29.10;13.35;;;;;;;1.84;73.23;99319.00;3473464;28;20072;-53
2021/04/27 00:48:59;;;;;;;30.48;12.45;;;;;;;1.83;73.55;99316.38;3483017;28;20140;-43
2021/04/27 00:50:43;;;;;;;31.45;13.30;;;;;;;1.83;73.32;99318.94;3479827;28;20052;-44
2021/04/27 00:52:25;;;;;;;31.30;12.80;;;;;;;1.82;73.15;99320.63;3481527;28;20040;-44
2021/04/27 00:54:07;;;;;;;32.40;13.07;;;;;;;1.82;73.39;99320.63;3482264;28;20063;-44
2021/04/27 00:55:49;;;;;;;29.27;12.85;;;;;;;1.82;73.45;99318.06;3478142;28;20095;-52
2021/04/27 00:57:30;;;;;;;29.10;13.27;;;;;;;1.81;73.61;99320.56;3469018;28;20463;-51
2021/04/27 00:59:12;;;;;;;29.25;13.20;;;;;;;1.81;73.33;99323.97;3477372;28;20511;-43
2021/04/27 01:00:54;;;;;;;30.23;12.45;;;;;;;1.80;73.51;99322.25;3483206;28;20091;-43
2021/04/27 01:02:35;;;;;;;24.02;10.73;;;;;;;1.79;73.50;99323.03;3480677;28;20418;-49
2021/04/27 01:04:16;;;;;;;25.08;10.20;;;;;;;1.81;73.12;99328.22;3479527;28;20041;-45
2021/04/27 01:05:58;;;;;;;16.52;7.63;;;;;;;1.81;73.11;99325.66;3482716;28;20118;-50
2021/04/27 01:07:47;;;;;;;18.05;9.10;;;;;;;1.81;73.47;99321.41;3478831;28;20470;-54
2021/04/27 01:09:36;;;;;;;24.77;9.73;;;;;;;1.81;73.60;99323.97;3482810;28;20076;-49
2021/04/27 01:11:29;;;;;;;19.27;8.95;;;;;;;1.80;73.61;99326.50;3479418;28;20049;-50
2021/04/27 01:13:20;;;;;;;19.02;8.25;;;;;;;1.79;74.03;99325.59;3479801;28;20048;-52
2021/04/27 01:15:05;;;;;;;18.20;8.68;;;;;;;1.78;74.13;99321.31;3482081;28;20103;-42
2021/04/27 01:16:54;;;;;;;16.42;8.35;;;;;;;1.77;74.45;99323.81;3479322;28;20049;-44
2021/04/27 01:18:37;;;;;;;10.73;6.50;;;;;;;1.73;73.45;99321.09;3483458;28;20552;-44
2021/04/27 01:20:34;;;;;;;13.60;6.93;;;;;;;1.73;74.02;99322.81;3478326;28;20473;-44
2021/04/27 01:22:25;;;;;;;19.30;7.70;;;;;;;1.71;74.80;99322.72;3479543;28;20048;-53
2021/04/27 01:24:21;;;;;;;15.50;6.60;;;;;;;1.69;74.91;99331.13;3469053;28;20050;-53
2021/04/27 01:26:08;;;;;;;14.43;6.60;;;;;;;1.68;74.81;99326.84;3472455;28;20077;-44
2021/04/27 01:27:50;;;;;;;11.25;6.00;;;;;;;1.66;75.30;99326.78;3470105;28;20049;-50
2021/04/27 01:29:34;;;;;;;12.07;5.85;;;;;;;1.66;75.29;99326.78;3480413;28;20055;-51
2021/04/27 01:31:16;;;;;;;9.95;5.05;;;;;;;1.64;75.36;99323.28;3478038;28;20080;-43
2021/04/27 01:32:58;;;;;;;10.63;6.18;;;;;;;1.64;75.72;99324.97;3482864;28;20667;-43
2021/04/27 01:34:42;;;;;;;10.70;5.00;;;;;;;1.61;75.87;99325.69;3477230;28;20052;-47
2021/04/27 01:36:24;;;;;;;10.88;5.82;;;;;;;1.61;76.18;99335.91;3482891;28;20056;-51
2021/04/27 01:38:07;;;;;;;9.55;5.55;;;;;;;1.59;75.88;99326.44;3479603;28;20049;-43
2021/04/27 01:39:50;;;;;;;13.20;6.57;;;;;;;1.60;75.98;99333.28;3480554;28;20069;-43
2021/04/27 01:41:31;;;;;;;16.80;7.50;;;;;;;1.60;76.54;99331.63;3481728;28;20056;-43
2021/04/27 01:43:14;;;;;;;16.70;7.25;;;;;;;1.61;76.23;99332.50;3477573;28;20494;-43
2021/04/27 01:44:57;;;;;;;17.80;7.95;;;;;;;1.62;75.93;99331.66;3483388;28;20071;-43
2021/04/27 01:46:39;;;;;;;22.60;8.77;;;;;;;1.63;76.18;99335.97;3479164;28;20056;-44
2021/04/27 01:48:22;;;;;;;22.30;9.02;;;;;;;1.62;76.10;99334.22;3482370;28;20127;-52
2021/04/27 01:50:05;;;;;;;20.23;8.77;;;;;;;1.63;76.72;99331.75;3479688;28;20063;-49
2021/04/27 01:51:47;;;;;;;16.42;8.15;;;;;;;1.62;76.80;99335.13;3480123;28;20052;-50
2021/04/27 01:53:30;;;;;;;19.13;8.38;;;;;;;1.62;76.86;99334.22;3468800;28;20081;-44
2021/04/27 01:55:13;;;;;;;19.33;9.57;;;;;;;1.59;77.61;99332.41;3475262;28;20048;-43
2021/04/27 01:56:55;;;;;;;18.88;7.70;;;;;;;1.58;76.52;99334.91;3482936;28;20092;-43
2021/04/27 01:58:37;;;;;;;21.77;8.63;;;;;;;1.55;77.67;99331.41;3471365;28;20049;-43
2021/04/27 02:00:22;;;;;;;17.48;9.13;;;;;;;1.54;77.81;99333.91;3468710;28;20065;-43
2021/04/27 02:02:03;;;;;;;16.40;8.13;;;;;;;1.52;77.86;99327.84;3480346;28;20053;-49
2021/04/27 02:03:48;;;;;;;17.13;8.18;;;;;;;1.50;77.54;99335.44;3479042;28;20048;-50
2021/04/27 02:05:29;;;;;;;15.73;7.13;;;;;;;1.47;77.83;99332.75;3482208;28;20068;-50
2021/04/27 02:07:10;;;;;;;18.60;7.20;;;;;;;1.46;78.19;99333.56;3473432;28;20087;-50
2021/04/27 02:09:00;;;;;;;13.50;6.53;;;;;;;1.44;78.61;99330.09;3468143;28;20057;-50
2021/04/27 02:10:42;;;;;;;17.20;7.65;;;;;;;1.40;78.64;99333.28;3479842;28;20520;-52
2021/04/27 02:12:26;;;;;;;11.60;5.47;;;;;;;1.38;78.98;99322.13;3478835;28;20076;-50
2021/04/27 02:14:11;;;;;;;10.90;6.13;;;;;;;1.37;78.59;99328.03;3480698;28;20087;-43
2021/04/27 02:15:52;;;;;;;15.38;7.10;;;;;;;1.35;78.40;99335.66;3477770;28;20056;-50
2021/04/27 02:17:40;;;;;;;18.58;8.10;;;;;;;1.33;78.71;99337.25;3482289;28;20053;-50
2021/04/27 02:19:23;;;;;;;15.82;8.40;;;;;;;1.31;79.26;99338.00;3477459;28;20052;-49
2021/04/27 02:21:08;;;;;;;13.15;6.63;;;;;;;1.29;78.67;99335.38;3480102;28;20049;-50
2021/04/27 02:22:50;;;;;;;15.38;7.07;;;;;;;1.26;78.81;99337.78;3480611;28;20080;-49
2021/04/27 02:24:33;;;;;;;18.52;9.85;;;;;;;1.27;79.80;99339.53;3478564;28;20460;-49
2021/04/27 02:26:15;;;;;;;17.80;9.30;;;;;;;1.26;80.13;99340.31;3482143;28;20056;-49
2021/04/27 02:27:57;;;;;;;19.35;9.55;;;;;;;1.24;80.82;99339.38;3478662;28;20075;-49
2021/04/27 02:29:40;;;;;;;20.38;8.48;;;;;;;1.24;80.69;99335.97;3481754;28;20075;-44
2021/04/27 02:31:22;;;;;;;15.20;7.97;;;;;;;1.22;80.90;99335.91;3480015;28;20053;-43
2021/04/27 02:33:04;;;;;;;13.40;7.55;;;;;;;1.22;80.31;99341.00;3480443;28;20053;-43
2021/04/27 02:34:47;;;;;;;9.35;5.90;;;;;;;1.23;80.36;99340.22;3469320;28;20049;-52
2021/04/27 02:36:29;;;;;;;12.30;6.45;;;;;;;1.23;80.44;99336.75;3470514;28;20083;-50
2021/04/27 02:38:11;;;;;;;9.45;5.40;;;;;;;1.23;80.62;99332.56;3476032;28;20068;-49
2021/04/27 02:39:54;;;;;;;9.73;5.50;;;;;;;1.21;80.86;99336.69;3480199;28;20110;-50
2021/04/27 02:41:36;;;;;;;8.75;5.32;;;;;;;1.20;80.96;99329.84;3472605;28;20052;-43
2021/04/27 02:43:18;;;;;;;8.48;5.47;;;;;;;1.19;80.92;99335.75;3471349;28;20060;-43
2021/04/27 02:45:00;;;;;;;11.20;5.25;;;;;;;1.16;80.90;99331.38;3475239;28;20107;-43
2021/04/27 02:46:43;;;;;;;8.00;4.35;;;;;;;1.14;80.43;99333.00;3484624;28;20057;-51
2021/04/27 02:48:26;;;;;;;8.93;4.75;;;;;;;1.13;81.14;99335.47;3479276;28;20502;-50
2021/04/27 02:50:09;;;;;;;7.97;4.87;;;;;;;1.12;81.29;99341.38;3481148;28;20049;-52
2021/04/27 02:51:50;;;;;;;11.10;5.30;;;;;;;1.10;81.52;99335.34;3481606;28;20288;-50
2021/04/27 02:53:32;;;;;;;8.40;5.18;;;;;;;1.08;81.66;99334.41;3481500;28;20126;-43
2021/04/27 02:55:13;;;;;;;9.65;6.10;;;;;;;1.07;82.17;99335.19;3483991;28;20458;-43
2021/04/27 02:56:55;;;;;;;9.88;5.72;;;;;;;1.05;82.18;99340.22;3479368;28;20049;-50
2021/04/27 02:58:36;;;;;;;9.32;5.45;;;;;;;1.05;82.12;99339.34;3483900;28;20056;-52
2021/04/27 03:00:19;;;;;;;9.43;5.28;;;;;;;1.03;81.98;99334.19;3480349;28;20048;-53
2021/04/27 03:02:00;;;;;;;7.38;4.20;;;;;;;1.02;81.39;99332.44;3481665;28;20060;-51
2021/04/27 03:03:43;;;;;;;7.72;4.32;;;;;;;1.02;81.56;99334.09;3482733;28;20045;-51
2021/04/27 03:05:24;;;;;;;7.15;4.78;;;;;;;1.01;81.72;99330.69;3480633;28;20644;-49
2021/04/27 03:07:06;;;;;;;9.98;5.57;;;;;;;1.02;81.91;99336.66;3484327;28;20318;-43
2021/04/27 03:08:47;;;;;;;8.00;5.30;;;;;;;1.02;82.11;99342.66;3480381;28;20061;-43
2021/04/27 03:10:28;;;;;;;11.48;5.90;;;;;;;1.03;82.46;99343.53;3483326;28;20079;-43
2021/04/27 03:12:10;;;;;;;10.68;6.53;;;;;;;1.02;82.48;99345.22;3481653;28;20565;-43
2021/04/27 03:13:53;;;;;;;12.18;5.90;;;;;;;1.02;82.78;99345.22;3479072;28;20103;-43
2021/04/27 03:15:35;;;;;;;12.88;6.05;;;;;;;1.03;82.52;99343.53;3482702;28;20048;-43
2021/04/27 03:17:16;;;;;;;9.30;5.78;;;;;;;1.03;82.48;99340.97;3479003;28;20102;-43
2021/04/27 03:18:58;;;;;;;9.88;5.43;;;;;;;1.02;82.20;99342.66;3483863;28;20136;-44
2021/04/27 03:20:42;;;;;;;11.98;5.78;;;;;;;1.02;82.28;99351.97;3480770;28;20060;-51
2021/04/27 03:22:24;;;;;;;11.73;6.38;;;;;;;1.02;82.51;99352.88;3481236;28;20048;-49
2021/04/27 03:24:06;;;;;;;12.48;6.82;;;;;;;1.03;83.13;99353.75;3481672;28;20457;-52
2021/04/27 03:25:47;;;;;;;15.90;7.68;;;;;;;1.03;83.06;99356.28;3479522;28;20152;-43
2021/04/27 03:27:28;;;;;;;20.85;8.80;;;;;;;1.02;83.17;99346.88;3483591;28;20494;-49
2021/04/27 03:29:10;;;;;;;22.08;10.43;;;;;;;1.02;83.12;99351.97;3478735;28;20052;-49
2021/04/27 03:30:52;;;;;;;24.92;12.00;;;;;;;1.00;83.19;99349.38;3483670;28;20485;-51
2021/04/27 03:32:33;;;;;;;23.50;10.23;;;;;;;0.99;83.24;99358.69;3480226;28;20142;-50
2021/04/27 03:34:14;;;;;;;19.85;9.40;;;;;;;0.96;83.38;99356.00;3482598;28;20061;-50
2021/04/27 03:35:56;;;;;;;22.52;10.43;;;;;;;0.96;83.63;99350.88;3481593;28;20060;-43
2021/04/27 03:37:38;;;;;;;15.82;8.63;;;;;;;0.96;83.84;99357.69;3480473;28;20073;-43
2021/04/27 03:39:20;;;;;;;16.20;9.45;;;;;;;0.95;84.00;99354.25;3483104;28;20048;-43
2021/04/27 03:41:01;;;;;;;15.88;8.32;;;;;;;0.95;84.02;99356.81;3479305;28;20049;-48
2021/04/27 03:42:43;;;;;;;16.85;6.55;;;;;;;0.94;83.54;99357.59;3483569;28;20057;-43
2021/04/27 03:44:25;;;;;;;14.18;7.55;;;;;;;0.94;83.67;99357.59;3478647;28;20111;-43
2021/04/27 03:46:07;;;;;;;11.38;6.70;;;;;;;0.96;83.92;99355.13;3481355;28;20084;-43
2021/04/27 03:47:48;;;;;;;12.50;5.88;;;;;;;0.99;83.27;99355.28;3481135;28;20510;-43
2021/04/27 03:49:30;;;;;;;12.88;5.70;;;;;;;1.02;82.60;99362.19;3480162;28;20502;-43
2021/04/27 03:51:12;;;;;;;12.50;6.35;;;;;;;1.04;83.25;99358.06;3483339;28;20084;-43
2021/04/27 03:52:53;;;;;;;9.35;5.43;;;;;;;1.08;83.23;99359.94;3478652;28;20084;-43
2021/04/27 03:54:35;;;;;;;12.20;5.63;;;;;;;1.13;83.57;99358.47;3483727;28;20053;-49
2021/04/27 03:56:16;;;;;;;8.65;5.63;;;;;;;1.18;83.26;99355.31;3480241;28;20053;-49
2021/04/27 03:57:58;;;;;;;12.40;5.75;;;;;;;1.24;83.48;99354.72;3481161;28;20464;-51
2021/04/27 03:59:39;;;;;;;19.13;6.43;;;;;;;1.32;83.58;99347.41;3480966;28;20130;-50
2021/04/27 04:01:21;;;;;;;9.48;5.75;;;;;;;1.38;82.92;99353.66;3480361;28;20076;-50
2021/04/27 04:03:03;;;;;;;10.88;5.72;;;;;;;1.46;82.53;99354.03;3483289;28;20045;-50
2021/04/27 04:04:45;;;;;;;11.63;6.28;;;;;;;1.53;82.31;99350.94;3479913;28;20429;-50
2021/04/27 04:06:26;;;;;;;9.85;5.75;;;;;;;1.59;82.12;99350.31;3483273;28;20056;-50
2021/04/27 04:08:07;;;;;;;10.55;5.90;;;;;;;1.67;82.05;99358.31;3478605;28;20072;-52
2021/04/27 04:09:49;;;;;;;12.40;5.88;;;;;;;1.71;82.07;99355.97;3481421;28;20049;-52
2021/04/27 04:11:31;;;;;;;11.95;6.60;;;;;;;1.74;81.80;99353.56;3480520;28;20114;-50
2021/04/27 04:13:12;;;;;;;9.23;6.38;;;;;;;1.79;81.76;99342.63;3477081;28;20107;-50
2021/04/27 04:14:53;;;;;;;14.10;7.32;;;;;;;1.82;82.05;99345.34;3483130;28;20052;-49
2021/04/27 04:16:36;;;;;;;14.15;7.40;;;;;;;1.88;82.00;99349.03;3479793;28;20509;-50
2021/04/27 04:18:17;;;;;;;13.77;6.88;;;;;;;1.92;81.62;99348.34;3483391;28;20080;-53
2021/04/27 04:19:59;;;;;;;12.68;6.78;;;;;;;1.93;81.49;99347.53;3478253;28;20422;-51
2021/04/27 04:21:46;;;;;;;14.75;6.55;;;;;;;1.93;81.48;99349.22;3481783;28;20064;-50
2021/04/27 04:23:28;;;;;;;11.80;6.22;;;;;;;1.97;81.57;99348.56;3481724;28;20052;-50
2021/04/27 04:25:13;;;;;;;11.15;5.57;;;;;;;1.99;81.36;99346.03;3480231;28;20044;-43
2021/04/27 04:26:54;;;;;;;11.50;5.88;;;;;;;2.00;81.08;99345.25;3482276;28;20056;-44
2021/04/27 04:28:35;;;;;;;8.77;5.65;;;;;;;2.02;81.07;99347.03;3479454;28;20041;-44
2021/04/27 04:30:19;;;;;;;12.88;5.90;;;;;;;2.07;81.22;99347.25;3483644;28;20057;-44
2021/04/27 04:32:01;;;;;;;6.40;4.35;;;;;;;2.11;81.11;99351.66;3479938;28;20053;-49
2021/04/27 04:33:43;;;;;;;9.05;5.00;;;;;;;2.11;80.86;99347.44;3481260;28;20536;-49
2021/04/27 04:35:26;;;;;;;8.30;5.38;;;;;;;2.13;80.77;99347.53;3481547;28;20541;-52
2021/04/27 04:37:08;;;;;;;10.87;5.30;;;;;;;2.17;80.94;99353.66;3479557;28;20045;-50
2021/04/27 04:38:50;;;;;;;8.90;4.88;;;;;;;2.22;80.73;99347.00;3483182;28;20080;-50
2021/04/27 04:40:32;;;;;;;8.90;5.88;;;;;;;2.31;80.58;99357.66;3480033;28;20513;-43
2021/04/27 04:42:13;;;;;;;10.93;5.20;;;;;;;2.35;80.05;99361.19;3483003;28;20076;-44
2021/04/27 04:43:55;;;;;;;8.25;5.32;;;;;;;2.38;80.18;99359.63;3479562;28;20052;-44
2021/04/27 04:45:36;;;;;;;11.65;5.03;;;;;;;2.43;80.06;99353.03;3479556;28;20053;-44
2021/04/27 04:47:18;;;;;;;6.80;4.07;;;;;;;2.49;79.88;99358.38;3480304;28;20049;-51
2021/04/27 04:49:00;;;;;;;12.80;5.50;;;;;;;2.52;79.29;99360.22;3478491;28;20114;-50
2021/04/27 04:50:42;;;;;;;9.05;5.60;;;;;;;2.60;79.86;99360.50;3469081;28;20623;-51
2021/04/27 04:52:24;;;;;;;9.70;5.90;;;;;;;2.67;79.50;99359.94;3475603;28;20509;-44
2021/04/27 04:54:06;;;;;;;10.38;6.07;;;;;;;2.72;79.14;99370.38;3483037;28;20049;-52
2021/04/27 04:55:47;;;;;;;10.73;5.45;;;;;;;2.75;78.73;99360.22;3478110;28;20057;-49
2021/04/27 04:57:28;;;;;;;11.38;6.00;;;;;;;2.81;79.08;99357.94;3480896;28;20076;-52
2021/04/27 04:59:10;;;;;;;10.93;6.32;;;;;;;2.86;78.65;99364.13;3481658;28;20451;-51
2021/04/27 05:00:51;;;;;;;13.07;6.95;;;;;;;2.93;79.00;99366.09;3479390;28;20056;-50
2021/04/27 05:02:33;;;;;;;7.43;5.13;;;;;;;3.02;78.69;99374.13;3482563;28;20057;-52
2021/04/27 05:04:15;;;;;;;11.98;6.00;;;;;;;3.05;77.96;99368.28;3479644;28;20045;-44
2021/04/27 05:05:56;;;;;;;13.50;6.75;;;;;;;3.06;78.05;99372.56;3482616;28;20053;-44
2021/04/27 05:07:43;;;;;;;9.15;5.72;;;;;;;3.05;77.62;99369.13;3478021;28;20048;-44
2021/04/27 05:09:24;;;;;;;8.75;4.10;;;;;;;3.07;78.02;99370.06;3479886;28;20052;-50
2021/04/27 05:11:06;;;;;;;9.23;5.15;;;;;;;3.14;77.78;99375.44;3480345;28;20053;-50
2021/04/27 05:12:47;;;;;;;13.65;5.35;;;;;;;3.17;76.97;99367.84;3478312;28;20049;-52
2021/04/27 05:14:30;;;;;;;10.30;5.55;;;;;;;3.25;77.08;99369.03;3481032;28;20053;-50
2021/04/27 05:16:12;;;;;;;9.38;5.35;;;;;;;3.27;76.53;99363.13;3479165;28;20052;-52
2021/04/27 05:17:54;;;;;;;14.13;5.85;;;;;;;3.29;76.74;99363.19;3482244;28;20045;-50
2021/04/27 05:19:36;;;;;;;10.50;6.10;;;;;;;3.39;76.57;99369.53;3480019;28;20132;-44
2021/04/27 05:21:18;;;;;;;11.98;5.57;;;;;;;3.52;75.65;99370.88;3480269;28;20055;-45
2021/04/27 05:22:59;;;;;;;9.00;4.97;;;;;;;3.56;75.48;99365.03;3481688;28;20132;-44
2021/04/27 05:24:41;;;;;;;10.35;5.35;;;;;;;3.56;74.92;99367.59;3479772;28;20040;-44
2021/04/27 05:26:23;;;;;;;7.07;4.32;;;;;;;3.57;74.81;99366.78;3482305;28;20091;-44
2021/04/27 05:28:04;;;;;;;9.82;5.63;;;;;;;3.61;74.67;99369.53;3479147;28;20041;-44
2021/04/27 05:29:46;;;;;;;11.32;5.30;;;;;;;3.62;74.25;99371.25;3482158;28;20533;-52
2021/04/27 05:31:27;;;;;;;10.73;5.80;;;;;;;3.67;74.62;99371.44;3479473;28;20052;-51
2021/04/27 05:33:09;;;;;;;10.90;5.60;;;;;;;3.73;74.05;99369.06;3480446;28;20472;-49
2021/04/27 05:34:51;;;;;;;9.60;5.63;;;;;;;3.80;73.49;99375.31;3481299;28;20498;-44
2021/04/27 05:36:32;;;;;;;10.38;5.55;;;;;;;3.83;73.70;99378.84;3478758;28;20129;-44
2021/04/27 05:38:14;;;;;;;10.13;5.78;;;;;;;3.91;73.50;99378.25;3468759;28;20084;-44
2021/04/27 05:39:55;;;;;;;9.63;5.80;;;;;;;4.03;73.37;99373.56;3474449;28;20044;-45
2021/04/27 05:41:37;;;;;;;9.20;5.28;;;;;;;4.14;72.94;99373.91;3482701;28;20584;-45
2021/04/27 05:43:18;;;;;;;12.13;5.53;;;;;;;4.22;71.97;99370.78;3478514;28;20482;-44
2021/04/27 05:45:00;;;;;;;8.38;4.65;;;;;;;4.26;72.11;99369.19;3480506;28;20079;-44
2021/04/27 05:46:41;;;;;;;6.80;4.63;;;;;;;4.24;71.67;99378.56;3479813;28;20474;-44
2021/04/27 05:48:23;;;;;;;8.93;4.57;;;;;;;4.28;72.55;99374.41;3478845;28;20069;-44
2021/04/27 05:50:06;;;;;;;6.47;4.82;;;;;;;4.31;71.86;99375.38;3468527;28;20057;-44
2021/04/27 05:51:48;;;;;;;8.85;5.03;;;;;;;4.41;70.95;99376.56;3475605;28;20679;-45
2021/04/27 05:53:29;;;;;;;6.25;4.40;;;;;;;4.41;70.78;99371.44;3482360;28;20049;-50
2021/04/27 05:55:11;;;;;;;8.65;5.28;;;;;;;4.44;71.34;99368.94;3478160;28;20052;-44
2021/04/27 05:56:52;;;;;;;5.97;4.13;;;;;;;4.56;71.23;99373.63;3480396;28;20048;-46
2021/04/27 05:58:34;;;;;;;7.22;3.97;;;;;;;4.60;69.50;99368.66;3481402;28;20053;-44
2021/04/27 06:00:16;;;;;;;8.60;4.53;;;;;;;4.63;68.80;99365.28;3478887;28;20050;-45
2021/04/27 06:01:58;;;;;;;7.78;4.28;;;;;;;4.71;69.29;99368.13;3482193;28;20551;-45
2021/04/27 06:03:40;;;;;;;9.98;4.28;;;;;;;4.74;68.00;99363.97;3477841;28;20049;-44
2021/04/27 06:05:21;;;;;;;7.13;4.22;;;;;;;4.77;67.83;99374.31;3483260;28;20395;-50
2021/04/27 06:07:03;;;;;;;8.73;4.60;;;;;;;4.80;68.21;99369.28;3481265;28;20053;-49
2021/04/27 06:08:45;;;;;;;9.90;4.78;;;;;;;4.79;68.20;99364.97;3482585;28;20077;-49
2021/04/27 06:10:26;;;;;;;6.22;3.03;;;;;;;4.85;66.72;99360.81;3482253;28;20514;-49
2021/04/27 06:12:08;;;;;;;7.57;3.90;;;;;;;4.86;66.30;99368.59;3481016;28;20110;-49
2021/04/27 06:13:49;;;;;;;6.18;3.85;;;;;;;4.97;67.44;99366.34;3476532;28;20049;-50
2021/04/27 06:15:30;;;;;;;9.65;4.03;;;;;;;5.11;66.34;99365.09;3481075;28;20045;-50
2021/04/27 06:17:12;;;;;;;7.18;3.97;;;;;;;5.26;65.49;99356.97;3484708;28;20235;-45
2021/04/27 06:18:54;;;;;;;7.55;3.70;;;;;;;5.37;64.04;99355.56;3481527;28;20399;-45
2021/04/27 06:20:36;;;;;;;6.60;3.40;;;;;;;5.47;64.17;99353.28;3482297;28;20100;-45
2021/04/27 06:22:18;;;;;;;5.45;3.20;;;;;;;5.54;62.75;99356.06;3482441;28;20514;-46
2021/04/27 06:24:00;;;;;;;5.65;3.15;;;;;;;5.66;62.78;99357.22;3481094;28;20041;-50
2021/04/27 06:25:41;;;;;;;4.78;2.70;;;;;;;5.71;63.14;99366.84;3484544;28;20053;-50
2021/04/27 06:27:24;;;;;;;3.92;2.83;;;;;;;5.75;62.44;99366.09;3481061;28;20052;-48
2021/04/27 06:29:06;;;;;;;5.43;3.17;;;;;;;5.89;62.08;99360.47;3483760;28;20186;-45
2021/04/27 06:30:48;;;;;;;5.05;2.63;;;;;;;5.93;59.79;99355.44;3479440;28;20053;-44
2021/04/27 06:32:29;;;;;;;5.68;2.90;;;;;;;6.11;61.56;99356.75;3480933;28;20042;-46
2021/04/27 06:34:11;;;;;;;3.95;2.70;;;;;;;6.23;58.93;99357.06;3483157;28;20057;-44
2021/04/27 06:35:53;;;;;;;4.80;2.50;;;;;;;6.26;58.79;99358.88;3478303;28;20214;-44
2021/04/27 06:37:35;;;;;;;5.55;3.45;;;;;;;6.35;60.05;99353.94;3484416;28;20063;-45
2021/04/27 06:39:16;;;;;;;4.82;2.90;;;;;;;6.41;59.98;99360.97;3481425;28;20057;-50
2021/04/27 06:40:58;;;;;;;5.95;3.72;;;;;;;6.29;59.87;99362.41;3483786;28;20052;-51
2021/04/27 06:42:40;;;;;;;5.57;3.47;;;;;;;6.22;60.92;99365.63;3480679;28;20057;-50
2021/04/27 06:44:21;;;;;;;6.10;2.78;;;;;;;6.19;57.70;99368.13;3480827;28;20076;-48
2021/04/27 06:46:03;;;;;;;4.95;2.80;;;;;;;6.17;59.01;99367.22;3483191;28;20053;-46
2021/04/27 06:47:46;;;;;;;6.57;3.10;;;;;;;6.16;58.59;99365.47;3479727;28;20048;-50
2021/04/27 06:49:29;;;;;;;5.72;3.38;;;;;;;6.17;58.64;99359.50;3484536;28;20057;-45
2021/04/27 06:51:12;;;;;;;6.15;3.00;;;;;;;6.25;58.09;99363.13;3480662;28;20048;-50
2021/04/27 06:52:53;;;;;;;5.28;3.38;;;;;;;6.39;59.29;99360.91;3483894;28;20057;-49
2021/04/27 06:54:36;;;;;;;8.43;3.60;;;;;;;6.54;59.11;99363.03;3481344;28;20048;-45
2021/04/27 06:56:17;;;;;;;5.97;3.05;;;;;;;6.51;58.37;99360.34;3480033;28;20522;-45
2021/04/27 06:58:02;;;;;;;4.72;2.90;;;;;;;6.60;57.82;99355.44;3482357;28;20576;-49
2021/04/27 06:59:43;;;;;;;7.30;3.22;;;;;;;6.72;57.20;99351.38;3480458;28;20079;-49
2021/04/27 07:01:25;;;;;;;6.70;3.47;;;;;;;6.75;57.31;99356.63;3484426;28;20053;-45
2021/04/27 07:03:07;;;;;;;5.05;3.10;;;;;;;6.69;56.07;99355.63;3480472;28;20053;-45
2021/04/27 07:04:49;;;;;;;5.57;2.78;;;;;;;6.53;54.73;99361.25;3482512;28;20083;-45
2021/04/27 07:06:31;;;;;;;3.65;2.33;;;;;;;6.55;55.59;99353.56;3480941;28;20521;-45
2021/04/27 07:08:13;;;;;;;7.10;2.88;;;;;;;6.55;55.29;99356.16;3479620;28;20050;-45
2021/04/27 07:09:54;;;;;;;6.82;2.58;;;;;;;6.56;55.43;99351.03;3483844;28;20075;-45
2021/04/27 07:11:36;;;;;;;5.50;2.60;;;;;;;6.57;54.07;99354.47;3480369;28;20048;-45
2021/04/27 07:13:18;;;;;;;4.63;2.65;;;;;;;6.66;56.32;99355.56;3483120;28;20136;-45
2021/04/27 07:14:59;;;;;;;4.18;2.75;;;;;;;6.85;56.01;99350.84;3481002;28;20049;-49
2021/04/27 07:16:41;;;;;;;4.32;2.05;;;;;;;6.90;52.56;99359.56;3483437;28;20098;-48
2021/04/27 07:18:22;;;;;;;2.78;2.00;;;;;;;6.76;50.44;99353.22;3481435;28;20472;-50
2021/04/27 07:20:07;;;;;;;4.10;2.33;;;;;;;6.77;53.13;99352.38;3480971;28;20053;-49
2021/04/27 07:21:49;;;;;;;4.25;2.15;;;;;;;6.66;53.27;99334.94;3482714;28;20525;-52
2021/04/27 07:23:30;;;;;;;4.85;2.20;;;;;;;6.65;53.09;99355.56;3478985;28;20041;-48
2021/04/27 07:25:14;;;;;;;5.88;2.45;;;;;;;6.76;53.16;99360.97;3483823;28;20623;-51
2021/04/27 07:26:55;;;;;;;3.88;2.15;;;;;;;6.81;52.64;99360.22;3480204;28;20503;-49
2021/04/27 07:28:37;;;;;;;4.10;2.63;;;;;;;6.80;52.87;99363.63;3483071;28;20061;-50
2021/04/27 07:30:21;;;;;;;4.05;2.55;;;;;;;6.96;54.23;99364.03;3481702;28;20567;-50
2021/04/27 07:32:04;;;;;;;4.25;2.28;;;;;;;7.07;53.21;99358.28;3480179;28;20110;-50
2021/04/27 07:33:46;;;;;;;4.32;2.17;;;;;;;7.20;52.26;99359.44;3471214;28;20056;-44
2021/04/27 07:35:29;;;;;;;3.35;1.88;;;;;;;7.24;51.66;99363.81;3475728;28;20506;-45
2021/04/27 07:37:10;;;;;;;3.58;1.90;;;;;;;7.12;51.67;99371.28;3483737;28;20045;-44
2021/04/27 07:38:51;;;;;;;3.85;1.90;;;;;;;7.02;49.88;99359.03;3480097;28;20148;-44
2021/04/27 07:40:34;;;;;;;3.35;1.90;;;;;;;6.97;49.68;99371.81;3482486;28;20079;-50
2021/04/27 07:42:16;;;;;;;5.05;2.40;;;;;;;7.00;50.18;99363.25;3481002;28;20049;-49
2021/04/27 07:43:58;;;;;;;3.20;2.10;;;;;;;7.02;51.67;99364.19;3480358;28;20055;-50
2021/04/27 07:45:41;;;;;;;6.55;2.88;;;;;;;7.13;52.43;99359.25;3483406;28;20056;-49
2021/04/27 07:47:22;;;;;;;4.32;2.22;;;;;;;7.34;52.06;99359.72;3478674;28;20049;-50
2021/04/27 07:49:05;;;;;;;10.25;3.30;;;;;;;7.61;51.65;99354.25;3483626;28;20163;-44
2021/04/27 07:50:48;;;;;;;5.60;3.25;;;;;;;7.96;52.62;99358.41;3479013;28;20595;-44
2021/04/27 07:52:29;;;;;;;6.47;3.00;;;;;;;8.38;52.04;99347.97;3480254;28;21480;-50
2021/04/27 07:54:11;;;;;;;4.78;2.25;;;;;;;8.56;49.26;99352.56;3482275;28;20056;-49
2021/04/27 07:55:52;;;;;;;3.40;2.10;;;;;;;8.36;47.67;99346.22;3480410;28;20056;-50
2021/04/27 07:57:35;;;;;;;5.25;2.40;;;;;;;8.07;49.48;99356.88;3483464;28;20632;-49
2021/04/27 07:59:16;;;;;;;3.05;2.38;;;;;;;8.05;49.91;99352.53;3480068;28;20051;-48
2021/04/27 08:00:58;;;;;;;3.58;2.40;;;;;;;8.17;48.73;99353.63;3483316;28;20057;-49
2021/04/27 08:02:40;;;;;;;4.97;1.92;;;;;;;8.21;47.21;99344.22;3478641;28;20425;-45
2021/04/27 08:04:22;;;;;;;3.33;1.95;;;;;;;8.27;48.60;99346.03;3481461;28;20053;-45